createdAt,value
2022-10-16T00:01:25.293Z,19.48
2022-10-16T00:03:53.192Z,21.23
2022-10-16T00:06:21.339Z,18.65
2022-10-16T00:08:49.106Z,16.90
2022-10-16T00:11:16.437Z,16.92
2022-10-16T00:13:44.907Z,18.98
2022-10-16T00:16:13.224Z,20.45
2022-10-16T00:18:41.450Z,16.88
2022-10-16T00:21:10.464Z,19.00
2022-10-16T00:23:38.178Z,22.08
2022-10-16T00:26:07.315Z,16.33
2022-10-16T00:28:35.140Z,17.88
2022-10-16T00:31:12.820Z,18.83
2022-10-16T00:33:41.058Z,19.00
2022-10-16T00:36:09.643Z,16.63
2022-10-16T00:38:38.750Z,19.48
2022-10-16T00:41:06.815Z,18.90
2022-10-16T00:43:40.156Z,21.50
2022-10-16T00:46:19.271Z,22.02
2022-10-16T00:48:52.997Z,23.35
2022-10-16T00:51:23.067Z,21.13
2022-10-16T00:53:51.031Z,21.83
2022-10-16T00:56:18.714Z,21.17
2022-10-16T00:58:46.216Z,23.13
2022-10-16T01:01:13.898Z,21.52
2022-10-16T01:03:41.457Z,20.42
2022-10-16T01:06:16.100Z,23.60
2022-10-16T01:08:49.592Z,19.77
2022-10-16T01:11:17.002Z,25.75
2022-10-16T01:13:47.971Z,21.35
2022-10-16T01:16:18.616Z,20.08
2022-10-16T01:18:48.144Z,20.92
2022-10-16T01:21:19.987Z,25.73
2022-10-16T01:24:02.629Z,28.67
2022-10-16T01:26:37.753Z,24.95
2022-10-16T01:29:16.791Z,22.40
2022-10-16T01:31:47.365Z,22.85
2022-10-16T01:34:14.780Z,27.17
2022-10-16T01:36:43.996Z,26.02
2022-10-16T01:39:12.560Z,21.20
2022-10-16T01:41:42.316Z,26.58
2022-10-16T01:44:12.594Z,23.60
2022-10-16T01:46:41.476Z,24.70
2022-10-16T01:49:10.082Z,27.08
2022-10-16T01:51:38.526Z,26.17
2022-10-16T01:54:06.928Z,27.52
2022-10-16T01:56:35.319Z,27.70
2022-10-16T01:59:04.949Z,29.77
2022-10-16T02:01:33.778Z,25.67
2022-10-16T02:04:03.400Z,30.23
2022-10-16T02:06:31.216Z,26.63
2022-10-16T02:08:58.687Z,31.52
2022-10-16T02:11:26.213Z,29.52
2022-10-16T02:13:57.166Z,32.13
2022-10-16T02:16:25.508Z,29.10
2022-10-16T02:18:53.047Z,28.17
2022-10-16T02:21:39.355Z,29.13
2022-10-16T02:24:19.953Z,29.17
2022-10-16T02:26:56.627Z,32.10
2022-10-16T02:29:25.722Z,31.05
2022-10-16T02:31:56.104Z,28.85
2022-10-16T02:34:24.726Z,32.35
2022-10-16T02:36:52.692Z,27.05
2022-10-16T02:39:21.774Z,30.13
2022-10-16T02:41:49.656Z,35.33
2022-10-16T02:44:17.073Z,31.85
2022-10-16T02:46:44.544Z,30.00
2022-10-16T02:49:12.013Z,33.25
2022-10-16T02:51:39.655Z,35.13
2022-10-16T02:54:07.140Z,33.10
2022-10-16T02:56:34.667Z,31.52
2022-10-16T02:59:02.078Z,31.90
2022-10-16T03:01:29.580Z,32.65
2022-10-16T03:03:57.033Z,31.13
2022-10-16T03:06:24.655Z,30.73
2022-10-16T03:08:52.043Z,33.25
2022-10-16T03:11:19.519Z,30.10
2022-10-16T03:13:46.959Z,34.03
2022-10-16T03:16:14.425Z,30.08
2022-10-16T03:18:41.823Z,32.88
2022-10-16T03:21:09.340Z,31.58
2022-10-16T03:23:36.784Z,30.85
2022-10-16T03:26:04.287Z,33.40
2022-10-16T03:28:31.743Z,33.33
2022-10-16T03:30:59.214Z,32.45
2022-10-16T03:33:26.654Z,32.92
2022-10-16T03:35:55.177Z,34.08
2022-10-16T03:38:23.199Z,31.83
2022-10-16T03:40:50.644Z,35.00
2022-10-16T03:43:18.073Z,32.40
2022-10-16T03:45:45.527Z,29.08
2022-10-16T03:48:13.139Z,32.85
2022-10-16T03:50:40.679Z,35.17
2022-10-16T03:53:08.039Z,32.70
2022-10-16T03:55:36.273Z,32.50
2022-10-16T03:58:03.683Z,32.55
2022-10-16T04:00:31.099Z,32.35
2022-10-16T04:02:58.495Z,33.10
2022-10-16T04:05:25.940Z,34.65
2022-10-16T04:07:53.354Z,32.65
2022-10-16T04:10:20.802Z,32.60
2022-10-16T04:12:48.172Z,32.50
2022-10-16T04:15:15.593Z,33.03
2022-10-16T04:17:43.064Z,35.28
2022-10-16T04:20:10.539Z,34.78
2022-10-16T04:22:37.943Z,37.13
2022-10-16T04:25:05.521Z,35.80
2022-10-16T04:27:33.055Z,36.70
2022-10-16T04:30:01.323Z,33.95
2022-10-16T04:32:28.911Z,38.42
2022-10-16T04:34:56.316Z,33.47
2022-10-16T04:37:27.280Z,37.35
2022-10-16T04:39:55.403Z,35.60
2022-10-16T04:42:22.907Z,38.17
2022-10-16T04:44:50.359Z,36.80
2022-10-16T04:47:17.777Z,35.38
2022-10-16T04:49:45.266Z,36.60
2022-10-16T04:52:12.754Z,37.97
2022-10-16T04:54:40.183Z,38.28
2022-10-16T04:57:07.886Z,38.50
2022-10-16T04:59:35.323Z,39.55
2022-10-16T05:02:02.744Z,36.40
2022-10-16T05:04:30.106Z,37.25
2022-10-16T05:06:57.566Z,40.38
2022-10-16T05:09:24.991Z,38.42
2022-10-16T05:11:52.395Z,36.10
2022-10-16T05:14:19.903Z,36.13
2022-10-16T05:16:49.239Z,36.38
2022-10-16T05:19:28.135Z,35.92
2022-10-16T05:21:59.122Z,35.65
2022-10-16T05:24:27.205Z,36.33
2022-10-16T05:26:54.770Z,33.90
2022-10-16T05:29:22.293Z,33.67
2022-10-16T05:31:51.886Z,33.72
2022-10-16T05:34:21.336Z,35.92
2022-10-16T05:36:48.824Z,33.03
2022-10-16T05:39:16.893Z,37.10
2022-10-16T05:41:44.727Z,37.10
2022-10-16T05:44:12.291Z,34.65
2022-10-16T05:46:39.677Z,36.63
2022-10-16T05:49:07.162Z,35.33
2022-10-16T05:51:34.534Z,31.92
2022-10-16T05:54:02.020Z,33.95
2022-10-16T05:56:29.650Z,34.10
2022-10-16T05:58:57.346Z,34.60
2022-10-16T06:01:25.349Z,31.17
2022-10-16T06:03:53.679Z,30.00
2022-10-16T06:06:22.739Z,34.83
2022-10-16T06:08:50.753Z,35.72
2022-10-16T06:11:19.240Z,33.05
2022-10-16T06:13:47.022Z,30.85
2022-10-16T06:16:14.694Z,33.97
2022-10-16T06:18:42.263Z,26.30
2022-10-16T06:21:11.088Z,27.38
2022-10-16T06:23:38.915Z,25.52
2022-10-16T06:26:10.044Z,29.77
2022-10-16T06:28:37.663Z,26.70
2022-10-16T06:31:08.302Z,23.27
2022-10-16T06:33:36.432Z,21.73
2022-10-16T06:36:04.794Z,23.58
2022-10-16T06:38:32.708Z,21.45
2022-10-16T06:41:00.436Z,23.25
2022-10-16T06:43:28.242Z,22.30
2022-10-16T06:45:56.614Z,20.23
2022-10-16T06:48:24.792Z,19.92
2022-10-16T06:51:02.669Z,20.95
2022-10-16T06:53:39.629Z,20.08
2022-10-16T06:56:12.620Z,23.42
2022-10-16T06:58:40.297Z,23.10
2022-10-16T07:01:08.370Z,22.40
2022-10-16T07:03:40.834Z,28.23
2022-10-16T07:06:09.149Z,24.80
2022-10-16T07:08:37.416Z,29.17
2022-10-16T07:11:06.198Z,24.60
2022-10-16T07:13:37.403Z,31.10
2022-10-16T07:16:08.583Z,28.55
2022-10-16T07:18:36.525Z,25.40
2022-10-16T07:21:11.489Z,23.40
2022-10-16T07:23:39.256Z,24.15
2022-10-16T07:26:07.588Z,29.00
2022-10-16T07:28:36.120Z,28.83
2022-10-16T07:31:05.252Z,25.13
2022-10-16T07:33:33.154Z,23.23
2022-10-16T07:36:00.602Z,24.02
2022-10-16T07:38:28.488Z,23.95
2022-10-16T07:41:00.080Z,21.20
2022-10-16T07:43:28.116Z,25.02
2022-10-16T07:45:57.516Z,21.05
2022-10-16T07:48:35.400Z,20.90
2022-10-16T07:51:03.959Z,19.98
2022-10-16T07:53:31.686Z,17.48
2022-10-16T07:56:00.405Z,19.35
2022-10-16T07:58:28.969Z,19.83
2022-10-16T08:00:56.892Z,16.80
2022-10-16T08:03:24.674Z,19.85
2022-10-16T08:05:52.222Z,19.75
2022-10-16T08:08:19.979Z,20.45
2022-10-16T08:10:47.521Z,18.02
2022-10-16T08:13:16.390Z,17.05
2022-10-16T08:15:44.904Z,21.52
2022-10-16T08:18:12.823Z,19.05
2022-10-16T08:20:40.795Z,18.05
2022-10-16T08:23:08.384Z,16.55
2022-10-16T08:25:39.110Z,18.95
2022-10-16T08:28:07.403Z,16.10
2022-10-16T08:30:35.455Z,12.73
2022-10-16T08:33:03.419Z,15.85
2022-10-16T08:35:30.904Z,15.07
2022-10-16T08:37:58.337Z,18.17
2022-10-16T08:42:58.586Z,17.33
2022-10-16T08:45:26.797Z,14.88
2022-10-16T08:48:02.363Z,16.83
2022-10-16T08:50:31.339Z,13.32
2022-10-16T08:52:58.867Z,42.03
2022-10-16T08:55:35.233Z,14.32
2022-10-16T08:58:02.851Z,15.25
2022-10-16T09:00:30.780Z,13.90
2022-10-16T09:03:04.722Z,11.45
2022-10-16T09:05:55.417Z,18.65
2022-10-16T09:08:25.887Z,13.48
2022-10-16T09:10:53.611Z,18.58
2022-10-16T09:13:30.434Z,10.45
2022-10-16T09:16:03.148Z,15.65
2022-10-16T09:18:42.913Z,10.00
2022-10-16T09:21:14.165Z,11.40
2022-10-16T09:23:41.622Z,31.30
2022-10-16T09:26:13.258Z,14.48
2022-10-16T09:28:41.198Z,19.75
2022-10-16T09:31:14.569Z,13.30
2022-10-16T09:33:42.747Z,13.00
2022-10-16T09:36:11.189Z,11.82
2022-10-16T09:38:38.891Z,10.88
2022-10-16T09:41:16.804Z,15.55
2022-10-16T09:43:49.939Z,16.52
2022-10-16T09:46:46.736Z,10.55
2022-10-16T09:49:22.576Z,11.13
2022-10-16T09:51:50.017Z,12.57
2022-10-16T09:54:19.450Z,12.07
2022-10-16T09:56:50.239Z,54.25
2022-10-16T09:59:18.695Z,15.73
2022-10-16T10:01:51.840Z,92.93
2022-10-16T10:04:20.507Z,31.83
2022-10-16T10:06:47.935Z,54.70
2022-10-16T10:09:20.807Z,19.27
2022-10-16T10:12:07.045Z,84.32
2022-10-16T10:14:44.713Z,12.35
2022-10-16T10:17:12.236Z,16.25
2022-10-16T10:19:53.848Z,10.25
2022-10-16T10:22:29.817Z,10.48
2022-10-16T10:24:57.505Z,12.48
2022-10-16T10:27:32.449Z,24.45
2022-10-16T10:32:43.827Z,8.43
2022-10-16T10:35:29.560Z,25.33
2022-10-16T10:38:10.547Z,9.60
2022-10-16T10:40:45.599Z,12.68
2022-10-16T10:43:13.103Z,10.10
2022-10-16T10:45:44.195Z,9.88
2022-10-16T10:48:17.785Z,11.50
2022-10-16T10:50:50.742Z,10.43
2022-10-16T10:53:23.884Z,12.57
2022-10-16T10:55:56.209Z,15.82
2022-10-16T10:58:27.191Z,13.25
2022-10-16T11:01:13.250Z,13.38
2022-10-16T11:03:51.173Z,44.13
2022-10-16T11:06:25.674Z,38.95
2022-10-16T11:09:01.698Z,18.30
2022-10-16T11:11:51.625Z,10.95
2022-10-16T11:14:19.086Z,14.23
2022-10-16T11:16:55.591Z,9.88
2022-10-16T11:19:41.765Z,9.45
2022-10-16T11:22:09.209Z,24.10
2022-10-16T11:24:55.180Z,7.43
2022-10-16T11:27:28.311Z,13.70
2022-10-16T11:30:00.389Z,8.77
2022-10-16T11:32:32.107Z,12.02
2022-10-16T11:35:03.394Z,8.23
2022-10-16T11:37:36.197Z,7.75
2022-10-16T11:40:22.613Z,7.95
2022-10-16T11:42:56.506Z,13.75
2022-10-16T11:45:33.026Z,11.77
2022-10-16T11:48:03.925Z,13.20
2022-10-16T11:50:51.842Z,9.23
2022-10-16T11:53:38.058Z,8.52
2022-10-16T11:56:06.344Z,7.97
2022-10-16T11:58:37.167Z,8.93
2022-10-16T12:01:10.776Z,15.07
2022-10-16T12:03:38.390Z,9.55
2022-10-16T12:06:19.229Z,8.27
2022-10-16T12:08:46.971Z,9.05
2022-10-16T12:11:29.577Z,8.50
2022-10-16T12:14:12.344Z,9.38
2022-10-16T12:16:56.362Z,7.38
2022-10-16T12:19:24.631Z,6.72
2022-10-16T12:21:53.014Z,10.70
2022-10-16T12:24:26.171Z,10.57
2022-10-16T12:26:54.242Z,11.77
2022-10-16T12:29:21.666Z,8.57
2022-10-16T12:31:57.396Z,7.78
2022-10-16T12:34:29.752Z,7.68
2022-10-16T12:36:57.916Z,8.43
2022-10-16T12:39:26.476Z,8.10
2022-10-16T12:42:04.391Z,8.95
2022-10-16T12:44:38.019Z,10.30
2022-10-16T12:47:07.612Z,8.35
2022-10-16T12:49:41.862Z,9.75
2022-10-16T12:52:26.235Z,8.05
2022-10-16T12:54:53.956Z,12.23
2022-10-16T12:57:21.398Z,8.82
2022-10-16T12:59:51.827Z,8.30
2022-10-16T13:02:38.175Z,7.82
2022-10-16T13:05:14.629Z,11.65
2022-10-16T13:08:00.773Z,8.70
2022-10-16T13:10:53.205Z,9.10
2022-10-16T13:13:28.445Z,9.35
2022-10-16T13:16:14.388Z,9.23
2022-10-16T13:19:03.894Z,8.02
2022-10-16T13:21:31.312Z,8.43
2022-10-16T13:24:02.663Z,8.52
2022-10-16T13:26:33.175Z,6.32
2022-10-16T13:29:02.264Z,7.25
2022-10-16T13:31:30.350Z,8.27
2022-10-16T13:34:00.440Z,17.83
2022-10-16T13:36:28.068Z,10.77
2022-10-16T13:39:21.825Z,8.30
2022-10-16T13:42:04.754Z,8.00
2022-10-16T13:44:45.662Z,8.82
2022-10-16T13:47:24.424Z,7.43
2022-10-16T13:50:03.285Z,8.07
2022-10-16T13:52:31.047Z,13.25
2022-10-16T13:55:01.779Z,23.35
2022-10-16T13:57:30.561Z,10.02
2022-10-16T13:59:57.927Z,7.32
2022-10-16T14:02:35.653Z,22.95
2022-10-16T14:05:04.145Z,13.88
2022-10-16T14:07:33.258Z,11.50
2022-10-16T14:10:03.826Z,8.50
2022-10-16T14:12:31.640Z,7.40
2022-10-16T14:15:00.342Z,10.75
2022-10-16T14:17:29.124Z,9.05
2022-10-16T14:20:00.936Z,9.40
2022-10-16T14:22:34.476Z,13.52
2022-10-16T14:25:04.679Z,10.70
2022-10-16T14:27:32.453Z,8.25
2022-10-16T14:30:18.009Z,9.60
2022-10-16T14:32:55.139Z,8.60
2022-10-16T14:35:31.853Z,10.45
2022-10-16T14:38:00.392Z,14.32
2022-10-16T14:40:34.935Z,12.60
2022-10-16T14:43:06.391Z,39.40
2022-10-16T14:45:35.677Z,51.97
2022-10-16T14:48:08.226Z,34.55
2022-10-16T14:50:37.030Z,33.28
2022-10-16T14:53:10.132Z,11.50
2022-10-16T14:55:38.591Z,10.75
2022-10-16T14:58:06.181Z,18.25
2022-10-16T15:00:33.615Z,15.02
2022-10-16T15:03:01.216Z,19.40
2022-10-16T15:05:29.511Z,35.60
2022-10-16T15:07:58.518Z,23.15
2022-10-16T15:10:27.630Z,17.45
2022-10-16T15:12:55.257Z,29.60
2022-10-16T15:15:25.724Z,21.90
2022-10-16T15:17:58.181Z,21.35
2022-10-16T15:20:26.748Z,23.95
2022-10-16T15:22:54.570Z,16.52
2022-10-16T15:25:28.243Z,16.90
2022-10-16T15:27:55.792Z,19.05
2022-10-16T15:30:23.392Z,11.95
2022-10-16T15:32:50.903Z,18.98
2022-10-16T15:35:18.502Z,11.10
2022-10-16T15:37:46.076Z,15.45
2022-10-16T15:40:13.848Z,17.23
2022-10-16T15:42:41.400Z,16.33
2022-10-16T15:45:09.126Z,17.92
2022-10-16T15:47:36.594Z,15.75
2022-10-16T15:50:04.318Z,14.55
2022-10-16T15:52:33.006Z,21.85
2022-10-16T15:55:00.754Z,17.27
2022-10-16T15:57:30.462Z,19.25
2022-10-16T15:59:57.926Z,21.13
2022-10-16T16:02:25.547Z,19.83
2022-10-16T16:04:53.143Z,21.98
2022-10-16T16:07:20.815Z,23.75
2022-10-16T16:09:48.511Z,22.65
2022-10-16T16:12:15.920Z,23.40
2022-10-16T16:14:49.715Z,18.40
2022-10-16T16:17:17.284Z,16.27
2022-10-16T16:19:44.766Z,18.70
2022-10-16T16:22:13.578Z,17.77
2022-10-16T16:24:41.291Z,18.20
2022-10-16T16:27:08.989Z,21.30
2022-10-16T16:29:36.466Z,17.33
2022-10-16T16:32:03.915Z,12.80
2022-10-16T16:34:31.742Z,14.57
2022-10-16T16:36:59.239Z,15.73
2022-10-16T16:39:26.892Z,16.15
2022-10-16T16:41:54.333Z,15.25
2022-10-16T16:44:21.873Z,19.92
2022-10-16T16:46:49.291Z,18.73
2022-10-16T16:49:18.820Z,16.75
2022-10-16T16:51:46.252Z,16.38
2022-10-16T16:54:14.917Z,20.05
2022-10-16T16:56:46.844Z,19.42
2022-10-16T16:59:15.971Z,19.70
2022-10-16T17:01:43.602Z,22.10
2022-10-16T17:04:11.415Z,24.65
2022-10-16T17:06:39.210Z,23.52
2022-10-16T17:09:07.695Z,29.60
2022-10-16T17:11:35.844Z,27.45
2022-10-16T17:14:04.171Z,28.10
2022-10-16T17:16:33.299Z,34.08
2022-10-16T17:19:01.571Z,26.38
2022-10-16T17:21:30.704Z,23.25
2022-10-16T17:23:58.446Z,25.75
2022-10-16T17:26:26.044Z,25.10
2022-10-16T17:28:54.841Z,25.65
2022-10-16T17:31:30.773Z,26.75
2022-10-16T17:33:59.449Z,23.90
2022-10-16T17:36:29.707Z,28.65
2022-10-16T17:39:00.411Z,26.90
2022-10-16T17:41:28.309Z,24.98
2022-10-16T17:43:55.744Z,26.92
2022-10-16T17:46:24.088Z,27.98
2022-10-16T17:48:54.486Z,28.20
2022-10-16T17:51:25.804Z,27.35
2022-10-16T17:53:54.392Z,27.85
2022-10-16T17:56:22.427Z,30.10
2022-10-16T17:58:51.776Z,28.58
2022-10-16T18:01:21.839Z,28.70
2022-10-16T18:03:58.395Z,27.48
2022-10-16T18:06:25.992Z,34.95
2022-10-16T18:08:54.227Z,35.13
2022-10-16T18:11:22.076Z,33.13
2022-10-16T18:13:49.769Z,35.67
2022-10-16T18:16:17.345Z,39.35
2022-10-16T18:18:45.351Z,39.95
2022-10-16T18:21:13.633Z,30.98
2022-10-16T18:23:41.284Z,35.50
2022-10-16T18:26:09.544Z,37.10
2022-10-16T18:28:37.044Z,27.50
2022-10-16T18:31:13.340Z,26.30
2022-10-16T18:33:41.452Z,26.60
2022-10-16T18:36:09.991Z,21.05
2022-10-16T18:38:38.075Z,23.15
2022-10-16T18:41:05.849Z,17.13
2022-10-16T18:43:36.177Z,23.40
2022-10-16T18:46:08.954Z,18.38
2022-10-16T18:48:37.966Z,16.80
2022-10-16T18:51:13.735Z,20.25
2022-10-16T18:53:43.087Z,22.02
2022-10-16T18:56:11.812Z,22.40
2022-10-16T18:58:41.594Z,23.20
2022-10-16T19:01:11.092Z,18.27
2022-10-16T19:03:44.005Z,25.55
2022-10-16T19:06:13.768Z,23.95
2022-10-16T19:08:42.018Z,28.67
2022-10-16T19:11:10.937Z,22.25
2022-10-16T19:13:39.119Z,22.02
2022-10-16T19:16:19.848Z,23.10
2022-10-16T19:18:48.568Z,23.63
2022-10-16T19:21:16.384Z,19.38
2022-10-16T19:23:44.292Z,25.10
2022-10-16T19:26:13.048Z,22.42
2022-10-16T19:28:40.754Z,26.35
2022-10-16T19:31:11.682Z,22.92
2022-10-16T19:33:39.653Z,23.80
2022-10-16T19:36:10.375Z,29.63
2022-10-16T19:38:38.329Z,27.33
2022-10-16T19:41:17.812Z,30.35
2022-10-16T19:43:45.800Z,26.15
2022-10-16T19:46:20.560Z,26.92
2022-10-16T19:48:48.586Z,27.40
2022-10-16T19:51:18.049Z,30.00
2022-10-16T19:53:46.335Z,24.13
2022-10-16T19:56:15.369Z,28.20
2022-10-16T19:58:43.272Z,22.10
2022-10-16T20:01:10.939Z,26.20
2022-10-16T20:03:40.556Z,24.33
2022-10-16T20:06:09.006Z,29.88
2022-10-16T20:08:37.310Z,26.73
2022-10-16T20:11:05.430Z,25.23
2022-10-16T20:13:36.230Z,31.15
2022-10-16T20:16:06.401Z,29.65
2022-10-16T20:18:34.041Z,26.88
2022-10-16T20:21:01.506Z,29.50
2022-10-16T20:23:28.942Z,34.88
2022-10-16T20:25:58.141Z,35.30
2022-10-16T20:28:27.975Z,35.67
2022-10-16T20:30:55.676Z,40.35
2022-10-16T20:33:23.044Z,39.42
2022-10-16T20:35:51.565Z,45.85
2022-10-16T20:38:19.711Z,50.75
2022-10-16T20:40:48.751Z,42.83
2022-10-16T20:43:17.766Z,46.47
2022-10-16T20:45:45.417Z,52.13
2022-10-16T20:48:14.069Z,53.47
2022-10-16T20:50:42.060Z,64.20
2022-10-16T20:53:09.484Z,52.60
2022-10-16T20:55:38.511Z,49.83
2022-10-16T20:58:06.650Z,51.97
2022-10-16T21:00:34.148Z,46.67
2022-10-16T21:03:01.736Z,53.13
2022-10-16T21:05:30.051Z,53.20
2022-10-16T21:07:58.264Z,55.40
2022-10-16T21:10:25.787Z,52.42
2022-10-16T21:12:56.279Z,50.72
2022-10-16T21:15:23.978Z,48.75
2022-10-16T21:17:51.416Z,47.42
2022-10-16T21:20:18.874Z,47.60
2022-10-16T21:22:46.302Z,51.50
2022-10-16T21:25:13.742Z,52.50
2022-10-16T21:27:42.055Z,46.47
2022-10-16T21:30:10.379Z,53.40
2022-10-16T21:32:38.820Z,54.38
2022-10-16T21:35:07.282Z,49.17
2022-10-16T21:37:35.219Z,47.63
2022-10-16T21:40:02.832Z,48.95
2022-10-16T21:42:30.587Z,43.42
2022-10-16T21:44:58.230Z,43.92
2022-10-16T21:47:25.679Z,42.28
2022-10-16T21:49:53.111Z,42.70
2022-10-16T21:52:20.473Z,41.60
2022-10-16T21:54:47.880Z,40.28
2022-10-16T21:57:15.368Z,46.22
2022-10-16T21:59:42.891Z,38.97
2022-10-16T22:02:10.365Z,43.00
2022-10-16T22:04:37.994Z,35.95
2022-10-16T22:07:05.395Z,39.83
2022-10-16T22:09:32.887Z,34.40
2022-10-16T22:12:00.313Z,33.78
2022-10-16T22:14:27.825Z,34.30
2022-10-16T22:16:55.191Z,29.77
2022-10-16T22:19:23.079Z,30.48
2022-10-16T22:21:55.962Z,24.67
2022-10-16T22:24:24.116Z,26.80
2022-10-16T22:26:51.669Z,26.98
2022-10-16T22:29:19.116Z,28.48
2022-10-16T22:31:46.538Z,28.92
2022-10-16T22:34:15.315Z,28.52
2022-10-16T22:36:42.847Z,26.58
2022-10-16T22:39:10.822Z,26.90
2022-10-16T22:41:38.277Z,28.05
2022-10-16T22:44:05.782Z,22.17
2022-10-16T22:46:33.159Z,24.30
2022-10-16T22:49:00.614Z,23.17
2022-10-16T22:51:28.098Z,26.83
2022-10-16T22:53:55.561Z,32.83
2022-10-16T22:56:23.059Z,23.27
2022-10-16T22:58:51.103Z,22.67
2022-10-16T23:01:20.145Z,19.85
2022-10-16T23:03:47.573Z,22.38
2022-10-16T23:06:14.947Z,25.58
2022-10-16T23:08:42.427Z,27.95
2022-10-16T23:11:10.929Z,24.92
2022-10-16T23:13:38.712Z,23.40
2022-10-16T23:16:06.961Z,22.67
2022-10-16T23:18:35.061Z,26.27
2022-10-16T23:21:06.819Z,21.08
2022-10-16T23:23:35.579Z,20.35
2022-10-16T23:26:03.045Z,21.38
2022-10-16T23:28:32.309Z,22.17
2022-10-16T23:30:59.875Z,18.42
2022-10-16T23:33:27.359Z,22.13
2022-10-16T23:35:54.812Z,20.15
2022-10-16T23:38:22.261Z,20.88
2022-10-16T23:40:49.718Z,20.38
2022-10-16T23:43:17.071Z,20.77
2022-10-16T23:45:44.567Z,21.42
2022-10-16T23:48:12.023Z,20.98
2022-10-16T23:50:39.540Z,19.70
2022-10-16T23:53:10.064Z,20.02
2022-10-16T23:55:37.796Z,18.40
2022-10-16T23:58:05.173Z,23.23
